sensor_id;sensor_type;location;lat;lon;timestamp;pressure;altitude;pressure_sealevel;temperature;humidity
31771;BME280;18343;50.152;8.182;2022-08-19T00:00:30;97147.34;;;22.92;73.65
31771;BME280;18343;50.152;8.182;2022-08-19T00:02:57;97128.13;;;22.92;73.68
31771;BME280;18343;50.152;8.182;2022-08-19T00:05:23;97137.47;;;22.91;73.78
31771;BME280;18343;50.152;8.182;2022-08-19T00:07:51;97151.44;;;22.89;73.82
31771;BME280;18343;50.152;8.182;2022-08-19T00:10:19;97144.31;;;22.88;73.92
31771;BME280;18343;50.152;8.182;2022-08-19T00:12:46;97155.28;;;22.88;73.92
31771;BME280;18343;50.152;8.182;2022-08-19T00:15:17;97154.47;;;22.88;73.83
31771;BME280;18343;50.152;8.182;2022-08-19T00:17:45;97155.56;;;22.87;74.05
31771;BME280;18343;50.152;8.182;2022-08-19T00:20:20;97162.44;;;22.84;73.98
31771;BME280;18343;50.152;8.182;2022-08-19T00:22:48;97165.72;;;22.86;74.37
31771;BME280;18343;50.152;8.182;2022-08-19T00:25:16;97164.06;;;22.85;74.35
31771;BME280;18343;50.152;8.182;2022-08-19T00:27:42;97153.38;;;22.84;74.51
31771;BME280;18343;50.152;8.182;2022-08-19T00:30:10;97154.47;;;22.83;74.19
31771;BME280;18343;50.152;8.182;2022-08-19T00:32:38;97154.47;;;22.83;74.16
31771;BME280;18343;50.152;8.182;2022-08-19T00:35:06;97157.50;;;22.81;74.50
31771;BME280;18343;50.152;8.182;2022-08-19T00:37:33;97160.22;;;22.81;74.34
31771;BME280;18343;50.152;8.182;2022-08-19T00:40:02;97151.19;;;22.81;74.67
31771;BME280;18343;50.152;8.182;2022-08-19T00:42:30;97142.97;;;22.81;74.35
31771;BME280;18343;50.152;8.182;2022-08-19T00:44:57;97144.06;;;22.80;74.28
31771;BME280;18343;50.152;8.182;2022-08-19T00:47:24;97145.16;;;22.79;74.67
31771;BME280;18343;50.152;8.182;2022-08-19T00:49:53;97144.34;;;22.78;74.31
31771;BME280;18343;50.152;8.182;2022-08-19T00:52:25;97133.63;;;22.77;74.67
31771;BME280;18343;50.152;8.182;2022-08-19T00:54:55;97136.34;;;22.77;74.82
31771;BME280;18343;50.152;8.182;2022-08-19T00:57:28;97137.47;;;22.76;74.59
31771;BME280;18343;50.152;8.182;2022-08-19T00:59:58;97137.47;;;22.76;74.79
31771;BME280;18343;50.152;8.182;2022-08-19T01:02:27;97136.63;;;22.75;74.75
31771;BME280;18343;50.152;8.182;2022-08-19T01:04:54;97129.22;;;22.76;74.33
31771;BME280;18343;50.152;8.182;2022-08-19T01:07:21;97125.13;;;22.73;74.83
31771;BME280;18343;50.152;8.182;2022-08-19T01:09:48;97127.03;;;22.73;74.89
31771;BME280;18343;50.152;8.182;2022-08-19T01:12:15;97128.13;;;22.72;74.82
31771;BME280;18343;50.152;8.182;2022-08-19T01:14:44;97115.84;;;22.69;74.57
31771;BME280;18343;50.152;8.182;2022-08-19T01:17:12;97113.91;;;22.70;74.97
31771;BME280;18343;50.152;8.182;2022-08-19T01:19:41;97110.34;;;22.69;74.75
31771;BME280;18343;50.152;8.182;2022-08-19T01:22:16;97101.88;;;22.66;74.85
31771;BME280;18343;50.152;8.182;2022-08-19T01:24:46;97106.25;;;22.67;75.12
31771;BME280;18343;50.152;8.182;2022-08-19T01:27:13;97108.16;;;22.66;75.16
31771;BME280;18343;50.152;8.182;2022-08-19T01:29:42;97111.72;;;22.67;74.83
31771;BME280;18343;50.152;8.182;2022-08-19T01:32:16;97103.25;;;22.63;75.05
31771;BME280;18343;50.152;8.182;2022-08-19T01:34:43;97093.66;;;22.60;75.12
31771;BME280;18343;50.152;8.182;2022-08-19T01:37:14;97088.16;;;22.60;75.04
31771;BME280;18343;50.152;8.182;2022-08-19T01:39:41;97088.16;;;22.60;75.03
31771;BME280;18343;50.152;8.182;2022-08-19T01:42:09;97084.59;;;22.60;75.33
31771;BME280;18343;50.152;8.182;2022-08-19T01:44:37;97078.31;;;22.59;75.29
31771;BME280;18343;50.152;8.182;2022-08-19T01:47:05;97087.63;;;22.58;75.42
31771;BME280;18343;50.152;8.182;2022-08-19T01:49:32;97091.47;;;22.57;75.16
31771;BME280;18343;50.152;8.182;2022-08-19T01:52:00;97098.84;;;22.57;75.19
31771;BME280;18343;50.152;8.182;2022-08-19T01:54:27;97099.97;;;22.56;75.62
31771;BME280;18343;50.152;8.182;2022-08-19T01:57:00;97104.63;;;22.55;75.24
31771;BME280;18343;50.152;8.182;2022-08-19T01:59:30;97117.50;;;22.55;75.53
31771;BME280;18343;50.152;8.182;2022-08-19T02:01:57;97113.94;;;22.54;75.71
31771;BME280;18343;50.152;8.182;2022-08-19T02:04:24;97122.16;;;22.54;75.79
31771;BME280;18343;50.152;8.182;2022-08-19T02:06:51;97123.25;;;22.53;75.52
31771;BME280;18343;50.152;8.182;2022-08-19T02:09:18;97112.56;;;22.52;75.75
31771;BME280;18343;50.152;8.182;2022-08-19T02:11:44;97112.56;;;22.52;75.66
31771;BME280;18343;50.152;8.182;2022-08-19T02:14:11;97102.69;;;22.51;75.97
31771;BME280;18343;50.152;8.182;2022-08-19T02:16:38;97097.50;;;22.49;75.57
31771;BME280;18343;50.152;8.182;2022-08-19T02:19:06;97104.63;;;22.50;75.76
31771;BME280;18343;50.152;8.182;2022-08-19T02:21:33;97116.69;;;22.49;75.92
31771;BME280;18343;50.152;8.182;2022-08-19T02:24:00;97110.38;;;22.49;75.85
31771;BME280;18343;50.152;8.182;2022-08-19T02:26:27;97116.94;;;22.48;76.16
31771;BME280;18343;50.152;8.182;2022-08-19T02:28:55;97122.44;;;22.48;75.92
31771;BME280;18343;50.152;8.182;2022-08-19T02:31:25;97116.41;;;22.46;75.64
31771;BME280;18343;50.152;8.182;2022-08-19T02:33:55;97121.88;;;22.46;75.95
31771;BME280;18343;50.152;8.182;2022-08-19T02:36:22;97124.91;;;22.44;75.95
31771;BME280;18343;50.152;8.182;2022-08-19T02:38:49;97114.25;;;22.43;76.16
31771;BME280;18343;50.152;8.182;2022-08-19T02:41:18;97120.53;;;22.43;75.81
31771;BME280;18343;50.152;8.182;2022-08-19T02:43:46;97117.78;;;22.43;76.27
31771;BME280;18343;50.152;8.182;2022-08-19T02:46:15;97129.03;;;22.42;76.06
31771;BME280;18343;50.152;8.182;2022-08-19T02:48:47;97130.13;;;22.41;76.16
31771;BME280;18343;50.152;8.182;2022-08-19T02:51:20;97135.06;;;22.39;76.11
31771;BME280;18343;50.152;8.182;2022-08-19T02:53:47;97139.72;;;22.38;75.90
31771;BME280;18343;50.152;8.182;2022-08-19T02:56:15;97141.66;;;22.38;76.68
31771;BME280;18343;50.152;8.182;2022-08-19T02:58:42;97139.19;;;22.36;76.21
31771;BME280;18343;50.152;8.182;2022-08-19T03:01:10;97141.91;;;22.36;76.11
31771;BME280;18343;50.152;8.182;2022-08-19T03:03:37;97142.75;;;22.37;76.24
31771;BME280;18343;50.152;8.182;2022-08-19T03:06:08;97142.19;;;22.35;76.30
31771;BME280;18343;50.152;8.182;2022-08-19T03:08:36;97154.25;;;22.34;76.51
31771;BME280;18343;50.152;8.182;2022-08-19T03:11:04;97149.59;;;22.34;76.19
31771;BME280;18343;50.152;8.182;2022-08-19T03:13:31;97144.13;;;22.34;76.23
31771;BME280;18343;50.152;8.182;2022-08-19T03:15:58;97137.25;;;22.32;76.58
31771;BME280;18343;50.152;8.182;2022-08-19T03:18:24;97135.34;;;22.32;76.30
31771;BME280;18343;50.152;8.182;2022-08-19T03:20:52;97141.09;;;22.31;76.47
31771;BME280;18343;50.152;8.182;2022-08-19T03:23:20;97140.28;;;22.30;76.32
31771;BME280;18343;50.152;8.182;2022-08-19T03:25:51;97141.38;;;22.29;76.53
31771;BME280;18343;50.152;8.182;2022-08-19T03:28:20;97125.22;;;22.27;76.37
31771;BME280;18343;50.152;8.182;2022-08-19T03:30:58;97128.22;;;22.26;76.50
31771;BME280;18343;50.152;8.182;2022-08-19T03:33:27;97132.06;;;22.25;76.69
31771;BME280;18343;50.152;8.182;2022-08-19T03:36:06;97131.50;;;22.23;76.46
31771;BME280;18343;50.152;8.182;2022-08-19T03:38:34;97135.63;;;22.25;76.66
31771;BME280;18343;50.152;8.182;2022-08-19T03:41:08;97134.25;;;22.23;76.72
31771;BME280;18343;50.152;8.182;2022-08-19T03:43:36;97135.06;;;22.23;76.85
31771;BME280;18343;50.152;8.182;2022-08-19T03:46:09;97129.03;;;22.21;76.79
31771;BME280;18343;50.152;8.182;2022-08-19T03:48:38;97135.34;;;22.22;77.14
31771;BME280;18343;50.152;8.182;2022-08-19T03:51:06;97141.09;;;22.20;76.70
31771;BME280;18343;50.152;8.182;2022-08-19T03:53:34;97126.56;;;22.20;76.92
31771;BME280;18343;50.152;8.182;2022-08-19T03:56:02;97138.63;;;22.19;76.74
31771;BME280;18343;50.152;8.182;2022-08-19T03:58:30;97129.59;;;22.18;77.00
31771;BME280;18343;50.152;8.182;2022-08-19T04:00:57;97139.72;;;22.18;77.26
31771;BME280;18343;50.152;8.182;2022-08-19T04:03:25;97138.63;;;22.19;77.16
31771;BME280;18343;50.152;8.182;2022-08-19T04:05:53;97145.19;;;22.18;77.14
31771;BME280;18343;50.152;8.182;2022-08-19T04:08:20;97148.19;;;22.16;76.99
31771;BME280;18343;50.152;8.182;2022-08-19T04:10:48;97153.69;;;22.16;77.34
31771;BME280;18343;50.152;8.182;2022-08-19T04:13:16;97150.13;;;22.16;77.08
31771;BME280;18343;50.152;8.182;2022-08-19T04:15:45;97148.78;;;22.13;77.37
31771;BME280;18343;50.152;8.182;2022-08-19T04:18:13;97151.53;;;22.13;77.50
31771;BME280;18343;50.152;8.182;2022-08-19T04:20:42;97151.78;;;22.12;77.35
31771;BME280;18343;50.152;8.182;2022-08-19T04:23:10;97152.63;;;22.12;77.85
31771;BME280;18343;50.152;8.182;2022-08-19T04:25:38;97155.63;;;22.11;77.35
31771;BME280;18343;50.152;8.182;2022-08-19T04:28:05;97157.81;;;22.09;77.65
31771;BME280;18343;50.152;8.182;2022-08-19T04:30:39;97161.66;;;22.08;77.37
31771;BME280;18343;50.152;8.182;2022-08-19T04:33:06;97155.06;;;22.04;77.56
31771;BME280;18343;50.152;8.182;2022-08-19T04:35:37;97148.75;;;22.03;77.64
31771;BME280;18343;50.152;8.182;2022-08-19T04:38:05;97151.50;;;22.03;77.96
31771;BME280;18343;50.152;8.182;2022-08-19T04:40:31;97138.09;;;22.02;77.81
31771;BME280;18343;50.152;8.182;2022-08-19T04:43:16;97140.81;;;22.02;77.59
31771;BME280;18343;50.152;8.182;2022-08-19T04:45:43;97150.13;;;22.01;78.06
31771;BME280;18343;50.152;8.182;2022-08-19T04:48:11;97155.59;;;22.01;78.13
31771;BME280;18343;50.152;8.182;2022-08-19T04:50:41;97153.09;;;21.99;77.89
31771;BME280;18343;50.152;8.182;2022-08-19T04:53:08;97160.22;;;22.00;78.18
31771;BME280;18343;50.152;8.182;2022-08-19T04:55:39;97154.47;;;21.96;78.03
31771;BME280;18343;50.152;8.182;2022-08-19T04:58:06;97155.28;;;21.97;78.06
31771;BME280;18343;50.152;8.182;2022-08-19T05:00:33;97152.56;;;21.97;78.13
31771;BME280;18343;50.152;8.182;2022-08-19T05:02:59;97153.66;;;21.96;78.22
31771;BME280;18343;50.152;8.182;2022-08-19T05:05:27;97152.28;;;21.93;78.06
31771;BME280;18343;50.152;8.182;2022-08-19T05:07:54;97160.50;;;21.93;78.45
31771;BME280;18343;50.152;8.182;2022-08-19T05:10:21;97172.53;;;21.92;78.36
31771;BME280;18343;50.152;8.182;2022-08-19T05:12:48;97168.16;;;21.91;78.48
31771;BME280;18343;50.152;8.182;2022-08-19T05:15:16;97181.00;;;21.91;78.67
31771;BME280;18343;50.152;8.182;2022-08-19T05:17:44;97177.72;;;21.89;78.75
31771;BME280;18343;50.152;8.182;2022-08-19T05:20:32;97172.25;;;21.89;78.58
31771;BME280;18343;50.152;8.182;2022-08-19T05:23:17;97174.47;;;21.87;78.57
31771;BME280;18343;50.152;8.182;2022-08-19T05:25:44;97167.34;;;21.86;78.82
31771;BME280;18343;50.152;8.182;2022-08-19T05:28:10;97170.34;;;21.84;78.91
31771;BME280;18343;50.152;8.182;2022-08-19T05:30:37;97170.06;;;21.86;78.51
31771;BME280;18343;50.152;8.182;2022-08-19T05:33:03;97175.81;;;21.84;78.89
31771;BME280;18343;50.152;8.182;2022-08-19T05:35:31;97167.63;;;21.84;78.78
31771;BME280;18343;50.152;8.182;2022-08-19T05:37:57;97173.09;;;21.84;79.11
31771;BME280;18343;50.152;8.182;2022-08-19T05:40:24;97171.44;;;21.83;79.06
31771;BME280;18343;50.152;8.182;2022-08-19T05:42:50;97161.59;;;21.82;79.20
31771;BME280;18343;50.152;8.182;2022-08-19T05:45:17;97168.16;;;21.81;79.20
31771;BME280;18343;50.152;8.182;2022-08-19T05:47:44;97167.31;;;21.81;78.97
31771;BME280;18343;50.152;8.182;2022-08-19T05:50:11;97171.97;;;21.80;79.17
31771;BME280;18343;50.152;8.182;2022-08-19T05:52:39;97170.34;;;21.79;79.25
31771;BME280;18343;50.152;8.182;2022-08-19T05:55:07;97174.16;;;21.78;79.32
31771;BME280;18343;50.152;8.182;2022-08-19T05:57:33;97182.38;;;21.78;79.17
31771;BME280;18343;50.152;8.182;2022-08-19T06:00:00;97180.47;;;21.79;79.68
31771;BME280;18343;50.152;8.182;2022-08-19T06:02:29;97173.34;;;21.78;79.41
31771;BME280;18343;50.152;8.182;2022-08-19T06:04:56;97174.44;;;21.77;79.45
31771;BME280;18343;50.152;8.182;2022-08-19T06:07:23;97182.66;;;21.77;79.97
31771;BME280;18343;50.152;8.182;2022-08-19T06:09:50;97188.94;;;21.77;79.82
31771;BME280;18343;50.152;8.182;2022-08-19T06:12:17;97190.84;;;21.77;79.90
31771;BME280;18343;50.152;8.182;2022-08-19T06:14:43;97202.91;;;21.76;80.00
31771;BME280;18343;50.152;8.182;2022-08-19T06:17:10;97206.72;;;21.75;79.90
31771;BME280;18343;50.152;8.182;2022-08-19T06:19:37;97207.81;;;21.74;79.86
31771;BME280;18343;50.152;8.182;2022-08-19T06:22:04;97213.28;;;21.74;79.66
31771;BME280;18343;50.152;8.182;2022-08-19T06:24:32;97212.47;;;21.73;80.34
31771;BME280;18343;50.152;8.182;2022-08-19T06:27:01;97210.00;;;21.72;79.85
31771;BME280;18343;50.152;8.182;2022-08-19T06:29:28;97219.84;;;21.73;80.40
31771;BME280;18343;50.152;8.182;2022-08-19T06:31:59;97216.28;;;21.72;80.24
31771;BME280;18343;50.152;8.182;2022-08-19T06:34:28;97217.38;;;21.71;80.44
31771;BME280;18343;50.152;8.182;2022-08-19T06:36:56;97224.50;;;21.72;80.30
31771;BME280;18343;50.152;8.182;2022-08-19T06:39:28;97218.47;;;21.70;80.79
31771;BME280;18343;50.152;8.182;2022-08-19T06:41:58;97222.84;;;21.71;80.73
31771;BME280;18343;50.152;8.182;2022-08-19T06:44:29;97226.41;;;21.72;80.77
31771;BME280;18343;50.152;8.182;2022-08-19T06:46:57;97229.97;;;21.72;81.03
31771;BME280;18343;50.152;8.182;2022-08-19T06:49:24;97229.72;;;21.74;81.08
31771;BME280;18343;50.152;8.182;2022-08-19T06:51:57;97241.47;;;21.74;81.20
31771;BME280;18343;50.152;8.182;2022-08-19T06:54:25;97240.66;;;21.74;81.20
31771;BME280;18343;50.152;8.182;2022-08-19T06:56:52;97242.03;;;21.76;81.65
31771;BME280;18343;50.152;8.182;2022-08-19T06:59:21;97242.59;;;21.78;81.59
31771;BME280;18343;50.152;8.182;2022-08-19T07:01:51;97242.59;;;21.78;81.62
31771;BME280;18343;50.152;8.182;2022-08-19T07:04:22;97242.34;;;21.80;81.51
31771;BME280;18343;50.152;8.182;2022-08-19T07:06:50;97244.81;;;21.81;81.60
31771;BME280;18343;50.152;8.182;2022-08-19T07:09:18;97245.63;;;21.82;81.99
31771;BME280;18343;50.152;8.182;2022-08-19T07:11:46;97251.91;;;21.82;82.21
31771;BME280;18343;50.152;8.182;2022-08-19T07:14:14;97248.09;;;21.83;82.31
31771;BME280;18343;50.152;8.182;2022-08-19T07:16:41;97251.66;;;21.84;82.07
31771;BME280;18343;50.152;8.182;2022-08-19T07:19:08;97246.19;;;21.84;82.15
31771;BME280;18343;50.152;8.182;2022-08-19T07:21:36;97251.38;;;21.85;82.52
31771;BME280;18343;50.152;8.182;2022-08-19T07:24:03;97250.28;;;21.86;82.58
31771;BME280;18343;50.152;8.182;2022-08-19T07:26:33;97250.03;;;21.88;82.60
31771;BME280;18343;50.152;8.182;2022-08-19T07:29:05;97264.25;;;21.90;82.46
31771;BME280;18343;50.152;8.182;2022-08-19T07:31:32;97257.69;;;21.91;83.15
31771;BME280;18343;50.152;8.182;2022-08-19T07:34:02;97267.28;;;21.93;82.77
31771;BME280;18343;50.152;8.182;2022-08-19T07:36:35;97263.44;;;21.94;83.22
31771;BME280;18343;50.152;8.182;2022-08-19T07:39:06;97259.34;;;21.97;83.12
31771;BME280;18343;50.152;8.182;2022-08-19T07:41:35;97257.97;;;22.00;83.30
31771;BME280;18343;50.152;8.182;2022-08-19T07:44:04;97247.63;;;22.02;83.39
31771;BME280;18343;50.152;8.182;2022-08-19T07:46:37;97246.25;;;22.04;83.32
31771;BME280;18343;50.152;8.182;2022-08-19T07:49:07;97253.09;;;22.07;83.18
31771;BME280;18343;50.152;8.182;2022-08-19T07:51:35;97261.06;;;22.08;83.43
31771;BME280;18343;50.152;8.182;2022-08-19T07:54:01;97255.31;;;22.10;83.85
31771;BME280;18343;50.152;8.182;2022-08-19T07:56:28;97262.44;;;22.11;83.62
31771;BME280;18343;50.152;8.182;2022-08-19T07:58:54;97258.34;;;22.13;83.52
31771;BME280;18343;50.152;8.182;2022-08-19T08:01:25;97254.22;;;22.11;83.13
31771;BME280;18343;50.152;8.182;2022-08-19T08:03:54;97260.25;;;22.13;83.92
31771;BME280;18343;50.152;8.182;2022-08-19T08:06:40;97264.91;;;22.12;83.81
31771;BME280;18343;50.152;8.182;2022-08-19T08:09:29;97256.69;;;22.12;83.97
31771;BME280;18343;50.152;8.182;2022-08-19T08:12:00;97257.50;;;22.13;83.73
31771;BME280;18343;50.152;8.182;2022-08-19T08:14:30;97264.63;;;22.14;84.09
31771;BME280;18343;50.152;8.182;2022-08-19T08:16:57;97263.81;;;22.13;83.87
31771;BME280;18343;50.152;8.182;2022-08-19T08:19:27;97266.56;;;22.13;83.86
31771;BME280;18343;50.152;8.182;2022-08-19T08:21:57;97273.69;;;22.14;83.90
31771;BME280;18343;50.152;8.182;2022-08-19T08:24:24;97273.38;;;22.16;84.26
31771;BME280;18343;50.152;8.182;2022-08-19T08:26:51;97271.19;;;22.18;84.16
31771;BME280;18343;50.152;8.182;2022-08-19T08:29:18;97275.56;;;22.19;84.63
31771;BME280;18343;50.152;8.182;2022-08-19T08:31:46;97280.78;;;22.20;84.52
31771;BME280;18343;50.152;8.182;2022-08-19T08:34:14;97288.19;;;22.20;84.33
31771;BME280;18343;50.152;8.182;2022-08-19T08:36:43;97287.34;;;22.19;84.34
31771;BME280;18343;50.152;8.182;2022-08-19T08:39:14;97291.75;;;22.20;84.39
31771;BME280;18343;50.152;8.182;2022-08-19T08:41:50;97285.72;;;22.18;84.17
31771;BME280;18343;50.152;8.182;2022-08-19T08:44:23;97293.38;;;22.21;84.31
31771;BME280;18343;50.152;8.182;2022-08-19T08:46:56;97290.66;;;22.21;84.14
31771;BME280;18343;50.152;8.182;2022-08-19T08:49:33;97290.66;;;22.21;84.48
31771;BME280;18343;50.152;8.182;2022-08-19T08:52:07;97286.81;;;22.22;84.77
31771;BME280;18343;50.152;8.182;2022-08-19T08:54:42;97275.03;;;22.22;84.61
31771;BME280;18343;50.152;8.182;2022-08-19T08:57:13;97288.47;;;22.23;84.55
31771;BME280;18343;50.152;8.182;2022-08-19T08:59:43;97291.22;;;22.23;84.63
31771;BME280;18343;50.152;8.182;2022-08-19T09:02:16;97292.84;;;22.24;84.63
31771;BME280;18343;50.152;8.182;2022-08-19T09:04:44;97296.97;;;22.27;84.64
31771;BME280;18343;50.152;8.182;2022-08-19T09:07:27;97308.19;;;22.25;84.61
31771;BME280;18343;50.152;8.182;2022-08-19T09:10:07;97297.78;;;22.27;84.70
31771;BME280;18343;50.152;8.182;2022-08-19T09:12:44;97294.78;;;22.29;84.38
31771;BME280;18343;50.152;8.182;2022-08-19T09:15:22;97289.59;;;22.33;84.85
31771;BME280;18343;50.152;8.182;2022-08-19T09:17:53;97300.84;;;22.36;84.76
31771;BME280;18343;50.152;8.182;2022-08-19T09:20:23;97304.13;;;22.38;85.05
31771;BME280;18343;50.152;8.182;2022-08-19T09:22:50;97307.16;;;22.42;84.61
31771;BME280;18343;50.152;8.182;2022-08-19T09:25:21;97304.09;;;22.43;84.71
31771;BME280;18343;50.152;8.182;2022-08-19T09:27:49;97300.00;;;22.46;84.69
31771;BME280;18343;50.152;8.182;2022-08-19T09:30:22;97300.00;;;22.46;84.42
31771;BME280;18343;50.152;8.182;2022-08-19T09:32:50;97297.53;;;22.49;84.40
31771;BME280;18343;50.152;8.182;2022-08-19T09:35:20;97289.88;;;22.51;84.45
31771;BME280;18343;50.152;8.182;2022-08-19T09:37:48;97285.50;;;22.55;84.56
31771;BME280;18343;50.152;8.182;2022-08-19T09:40:17;97275.91;;;22.58;84.64
31771;BME280;18343;50.152;8.182;2022-08-19T09:42:44;97277.84;;;22.57;84.47
31771;BME280;18343;50.152;8.182;2022-08-19T09:45:13;97270.16;;;22.59;83.80
31771;BME280;18343;50.152;8.182;2022-08-19T09:47:40;97280.03;;;22.60;84.14
31771;BME280;18343;50.152;8.182;2022-08-19T09:50:10;97262.75;;;22.60;84.14
31771;BME280;18343;50.152;8.182;2022-08-19T09:52:37;97271.53;;;22.62;83.81
31771;BME280;18343;50.152;8.182;2022-08-19T09:55:06;97263.88;;;22.64;83.82
31771;BME280;18343;50.152;8.182;2022-08-19T09:57:35;97258.38;;;22.64;83.46
31771;BME280;18343;50.152;8.182;2022-08-19T10:00:04;97264.97;;;22.68;83.70
31771;BME280;18343;50.152;8.182;2022-08-19T10:02:32;97265.50;;;22.70;83.67
31771;BME280;18343;50.152;8.182;2022-08-19T10:04:58;97262.75;;;22.75;83.44
31771;BME280;18343;50.152;8.182;2022-08-19T10:07:43;97259.72;;;22.77;83.45
31771;BME280;18343;50.152;8.182;2022-08-19T10:10:10;97262.78;;;22.80;83.23
31771;BME280;18343;50.152;8.182;2022-08-19T10:12:37;97258.41;;;22.84;83.24
31771;BME280;18343;50.152;8.182;2022-08-19T10:15:06;97257.03;;;22.87;83.29
31771;BME280;18343;50.152;8.182;2022-08-19T10:17:33;97262.50;;;22.92;82.52
31771;BME280;18343;50.152;8.182;2022-08-19T10:20:01;97261.69;;;22.97;82.76
31771;BME280;18343;50.152;8.182;2022-08-19T10:22:30;97256.44;;;23.00;82.17
31771;BME280;18343;50.152;8.182;2022-08-19T10:24:56;97253.97;;;23.04;82.14
31771;BME280;18343;50.152;8.182;2022-08-19T10:27:23;97257.81;;;23.08;81.89
31771;BME280;18343;50.152;8.182;2022-08-19T10:29:50;97258.63;;;23.13;81.54
31771;BME280;18343;50.152;8.182;2022-08-19T10:32:17;97255.06;;;23.18;81.41
31771;BME280;18343;50.152;8.182;2022-08-19T10:34:44;97249.84;;;23.21;81.08
31771;BME280;18343;50.152;8.182;2022-08-19T10:37:10;97244.91;;;23.23;80.84
31771;BME280;18343;50.152;8.182;2022-08-19T10:39:37;97244.63;;;23.25;80.38
31771;BME280;18343;50.152;8.182;2022-08-19T10:42:05;97242.66;;;23.25;80.59
31771;BME280;18343;50.152;8.182;2022-08-19T10:44:33;97251.44;;;23.27;80.47
31771;BME280;18343;50.152;8.182;2022-08-19T10:47:02;97242.94;;;23.29;80.61
31771;BME280;18343;50.152;8.182;2022-08-19T10:49:30;97241.81;;;23.35;80.11
31771;BME280;18343;50.152;8.182;2022-08-19T10:51:57;97245.13;;;23.37;79.25
31771;BME280;18343;50.152;8.182;2022-08-19T10:54:42;97239.34;;;23.39;79.39
31771;BME280;18343;50.152;8.182;2022-08-19T10:57:31;97252.53;;;23.42;79.20
31771;BME280;18343;50.152;8.182;2022-08-19T10:59:57;97240.97;;;23.45;78.74
31771;BME280;18343;50.152;8.182;2022-08-19T11:02:25;97241.53;;;23.47;78.30
31771;BME280;18343;50.152;8.182;2022-08-19T11:04:51;97246.47;;;23.50;77.93
31771;BME280;18343;50.152;8.182;2022-08-19T11:07:18;97237.13;;;23.56;77.05
31771;BME280;18343;50.152;8.182;2022-08-19T11:09:45;97230.53;;;23.57;76.54
31771;BME280;18343;50.152;8.182;2022-08-19T11:12:12;97235.19;;;23.56;76.27
31771;BME280;18343;50.152;8.182;2022-08-19T11:14:39;97229.69;;;23.61;75.92
31771;BME280;18343;50.152;8.182;2022-08-19T11:17:06;97225.28;;;23.66;75.53
31771;BME280;18343;50.152;8.182;2022-08-19T11:19:34;97240.09;;;23.70;76.13
31771;BME280;18343;50.152;8.182;2022-08-19T11:22:01;97231.84;;;23.75;75.60
31771;BME280;18343;50.152;8.182;2022-08-19T11:24:30;97223.84;;;23.78;74.87
31771;BME280;18343;50.152;8.182;2022-08-19T11:27:03;97238.34;;;23.84;75.32
31771;BME280;18343;50.152;8.182;2022-08-19T11:29:31;97225.44;;;23.89;73.77
31771;BME280;18343;50.152;8.182;2022-08-19T11:31:58;97230.09;;;23.89;73.02
31771;BME280;18343;50.152;8.182;2022-08-19T11:34:28;97214.44;;;23.89;72.91
31771;BME280;18343;50.152;8.182;2022-08-19T11:36:56;97214.16;;;23.91;73.13
31771;BME280;18343;50.152;8.182;2022-08-19T11:39:27;97220.44;;;23.96;72.99
31771;BME280;18343;50.152;8.182;2022-08-19T11:41:54;97217.41;;;24.03;73.04
31771;BME280;18343;50.152;8.182;2022-08-19T11:44:21;97209.91;;;24.09;72.27
31771;BME280;18343;50.152;8.182;2022-08-19T11:46:48;97215.66;;;24.12;71.26
31771;BME280;18343;50.152;8.182;2022-08-19T11:49:16;97211.53;;;24.15;71.31
31771;BME280;18343;50.152;8.182;2022-08-19T11:51:45;97218.38;;;24.17;71.25
31771;BME280;18343;50.152;8.182;2022-08-19T11:54:15;97196.94;;;24.24;71.07
31771;BME280;18343;50.152;8.182;2022-08-19T11:56:43;97202.66;;;24.33;70.07
31771;BME280;18343;50.152;8.182;2022-08-19T11:59:11;97196.06;;;24.34;70.23
31771;BME280;18343;50.152;8.182;2022-08-19T12:01:38;97188.59;;;24.35;69.36
31771;BME280;18343;50.152;8.182;2022-08-19T12:04:07;97186.66;;;24.35;68.75
31771;BME280;18343;50.152;8.182;2022-08-19T12:06:34;97183.59;;;24.42;69.09
31771;BME280;18343;50.152;8.182;2022-08-19T12:09:07;97182.75;;;24.46;68.96
31771;BME280;18343;50.152;8.182;2022-08-19T12:11:35;97174.69;;;24.55;68.89
31771;BME280;18343;50.152;8.182;2022-08-19T12:14:03;97167.44;;;24.64;68.19
31771;BME280;18343;50.152;8.182;2022-08-19T12:16:32;97175.66;;;24.69;68.21
31771;BME280;18343;50.152;8.182;2022-08-19T12:19:00;97174.78;;;24.74;67.37
31771;BME280;18343;50.152;8.182;2022-08-19T12:21:32;97163.78;;;24.74;67.67
31771;BME280;18343;50.152;8.182;2022-08-19T12:24:01;97168.97;;;24.80;67.52
31771;BME280;18343;50.152;8.182;2022-08-19T12:26:30;97164.22;;;24.86;67.00
31771;BME280;18343;50.152;8.182;2022-08-19T12:28:58;97174.34;;;24.90;66.49
31771;BME280;18343;50.152;8.182;2022-08-19T12:31:25;97168.81;;;24.95;66.78
31771;BME280;18343;50.152;8.182;2022-08-19T12:33:52;97183.88;;;25.03;66.11
31771;BME280;18343;50.152;8.182;2022-08-19T12:36:19;97186.34;;;25.05;65.49
31771;BME280;18343;50.152;8.182;2022-08-19T12:38:46;97190.44;;;25.07;65.54
31771;BME280;18343;50.152;8.182;2022-08-19T12:41:17;97186.81;;;25.12;65.00
31771;BME280;18343;50.152;8.182;2022-08-19T12:43:45;97181.56;;;25.15;64.48
31771;BME280;18343;50.152;8.182;2022-08-19T12:46:12;97185.63;;;25.18;64.20
31771;BME280;18343;50.152;8.182;2022-08-19T12:48:40;97180.94;;;25.18;63.68
31771;BME280;18343;50.152;8.182;2022-08-19T12:51:15;97185.34;;;25.19;63.66
31771;BME280;18343;50.152;8.182;2022-08-19T12:53:44;97184.22;;;25.20;63.05
31771;BME280;18343;50.152;8.182;2022-08-19T12:56:12;97189.16;;;25.23;62.78
31771;BME280;18343;50.152;8.182;2022-08-19T12:58:41;97188.84;;;25.25;62.63
31771;BME280;18343;50.152;8.182;2022-08-19T13:01:10;97182.25;;;25.26;62.12
31771;BME280;18343;50.152;8.182;2022-08-19T13:03:38;97186.88;;;25.30;62.32
31771;BME280;18343;50.152;8.182;2022-08-19T13:06:06;97195.91;;;25.36;62.08
31771;BME280;18343;50.152;8.182;2022-08-19T13:08:33;97185.94;;;25.40;61.63